Aérodrome :
LOGIN :

S'inscrire | Disclaimer

   EN    FR    IT 

 










Légende :    VFR   VFR Marginal   IFR   IFR Intensif   IFR Très Intensif
Visi : 
Plafond : 
>= 8 km
>= 3000ft
5 à 8 km
1000 à 3000 ft
1500m à 5 km
500 à 1000 ft
800 à 1500m
200 à 500 ft
< 800m
< 200 ft
Symboles :   Orages  Brouillard  Fortes neiges  Fortes précipitations  Vent > 20 kt
SIGMETs :   Divers  Orages  Givrage  Turbulence  Onde Orograph.  Cendres Volcan.






- Altitude de l'aérodrome : 309 ft
- Code IATA : FNI


LFTW - Nîmes Garons

DERNIER METAR :
  • 120000Z AUTO 25004KT 220V280 CAVOK 05/04 Q1012

METARs EXPIRÉS :
  • 112330Z AUTO 25008KT CAVOK 05/04 Q1012
  • 112300Z AUTO 27006KT 240V310 9999 -RA FEW034/// SCT042/// BKN049/// ///TCU 05/04 Q1012
  • 112230Z AUTO VRB03KT 9999 FEW045/// SCT054/// BKN092/// ///TCU 04/02 Q1012
  • 112200Z AUTO 24004KT 9999 BKN047 BKN054 BKN190 04/03 Q1013
  • 112130Z AUTO 25005KT CAVOK 03/02 Q1013

TAF TAF LFTW
Valide du 11 à 15h jusqu'au 12 à 15h UTC


111400Z 1115/1215 VRB04KT 9999 RA NSC
TEMPO 1115/1121 32010KT RA BKN020 OVC080
BECMG 1122/1124 28010KT SCT040
BECMG 1205/1207 VRB03KT



MET'MAP, la Météo Aéronautique d'un coup d'oeil ! - Copyright ORBIFLY Décembre 2007 - Disclaimer

ORBIFLY MET'MAP TEAM :

Programmation & Développement : Alexandra Zaïnal
Sur une idée originale de : Baudouin d'Aumeries
Assistance à la programmation : Marc-Olivier Méhu
Soutien technique & logistique : Manuel Goepfert

Contact : metmap@orbifly.com




SOURCES & CREDITS :

   NOAA